createdAt,value
2023-04-26T00:00:30.534Z,22.67
2023-04-26T00:01:30.466Z,22.65
2023-04-26T00:02:30.531Z,22.66
2023-04-26T00:03:30.702Z,22.64
2023-04-26T00:04:30.626Z,22.64
2023-04-26T00:05:30.577Z,22.64
2023-04-26T00:06:30.583Z,22.64
2023-04-26T00:07:30.651Z,22.64
2023-04-26T00:08:30.639Z,22.64
2023-04-26T00:09:30.668Z,22.61
2023-04-26T00:10:30.693Z,22.58
2023-04-26T00:11:30.729Z,22.56
2023-04-26T00:12:30.788Z,22.54
2023-04-26T00:13:30.758Z,22.55
2023-04-26T00:14:30.821Z,22.53
2023-04-26T00:15:30.888Z,22.51
2023-04-26T00:16:30.932Z,22.52
2023-04-26T00:17:30.950Z,22.54
2023-04-26T00:18:30.964Z,22.55
2023-04-26T00:19:30.958Z,22.56
2023-04-26T00:20:31.030Z,22.56
2023-04-26T00:21:31.047Z,22.56
2023-04-26T00:22:31.071Z,22.58
2023-04-26T00:23:31.100Z,22.61
2023-04-26T00:24:31.116Z,22.64
2023-04-26T00:25:31.135Z,22.65
2023-04-26T00:26:31.159Z,22.66
2023-04-26T00:27:31.210Z,22.67
2023-04-26T00:28:31.257Z,22.67
2023-04-26T00:29:31.229Z,22.66
2023-04-26T00:30:31.291Z,22.63
2023-04-26T00:31:31.352Z,22.62
2023-04-26T00:32:31.391Z,22.62
2023-04-26T00:33:31.382Z,22.62
2023-04-26T00:34:31.380Z,22.64
2023-04-26T00:35:31.456Z,22.65
2023-04-26T00:36:31.445Z,22.67
2023-04-26T00:37:31.467Z,22.70
2023-04-26T00:38:31.519Z,22.72
2023-04-26T00:39:31.514Z,22.72
2023-04-26T00:40:31.564Z,22.74
2023-04-26T00:41:31.575Z,22.74
2023-04-26T00:42:31.591Z,22.76
2023-04-26T00:43:31.576Z,22.75
2023-04-26T00:44:31.589Z,22.75
2023-04-26T00:45:31.639Z,22.76
2023-04-26T00:46:31.665Z,22.78
2023-04-26T00:47:31.690Z,22.81
2023-04-26T00:48:31.701Z,22.83
2023-04-26T00:49:31.704Z,22.84
2023-04-26T00:50:31.706Z,22.85
2023-04-26T00:51:31.715Z,22.87
2023-04-26T00:52:31.744Z,22.90
2023-04-26T00:53:31.727Z,22.93
2023-04-26T00:54:31.739Z,22.96
2023-04-26T00:55:31.777Z,22.99
2023-04-26T00:56:31.746Z,23.02
2023-04-26T00:57:31.707Z,23.05
2023-04-26T00:58:31.710Z,23.08
2023-04-26T00:59:31.743Z,23.11
2023-04-26T01:00:31.702Z,23.14
2023-04-26T01:01:31.785Z,23.17
2023-04-26T01:02:31.864Z,23.20
2023-04-26T01:03:31.895Z,23.23
2023-04-26T01:04:31.892Z,23.25
2023-04-26T01:05:31.921Z,23.28
2023-04-26T01:06:31.957Z,23.32
2023-04-26T01:07:32.045Z,23.35
2023-04-26T01:08:32.077Z,23.36
2023-04-26T01:09:32.160Z,23.39
2023-04-26T01:10:32.212Z,23.42
2023-04-26T01:11:32.239Z,23.44
2023-04-26T01:12:32.281Z,23.47
2023-04-26T01:13:32.325Z,23.47
2023-04-26T01:14:32.395Z,23.50
2023-04-26T01:15:32.422Z,23.52
2023-04-26T01:16:32.547Z,23.53
2023-04-26T01:17:32.603Z,23.54
2023-04-26T01:18:32.635Z,23.57
2023-04-26T01:19:32.684Z,23.58
2023-04-26T01:20:32.744Z,23.60
2023-04-26T01:21:32.808Z,23.61
2023-04-26T01:22:32.872Z,23.63
2023-04-26T01:23:32.915Z,23.64
2023-04-26T01:24:32.960Z,23.65
2023-04-26T01:25:33.042Z,23.66
2023-04-26T01:26:33.133Z,23.68
2023-04-26T01:27:33.167Z,23.69
2023-04-26T01:28:33.179Z,23.70
2023-04-26T01:29:33.256Z,23.71
2023-04-26T01:30:33.321Z,23.71
2023-04-26T01:31:33.462Z,23.71
2023-04-26T01:32:33.424Z,23.71
2023-04-26T01:33:33.478Z,23.70
2023-04-26T01:34:33.525Z,23.70
2023-04-26T01:35:33.605Z,23.70
2023-04-26T01:36:33.643Z,23.71
2023-04-26T01:37:33.708Z,23.72
2023-04-26T01:38:33.779Z,23.71
2023-04-26T01:39:33.797Z,23.72
2023-04-26T01:40:33.891Z,23.73
2023-04-26T01:41:33.926Z,23.74
2023-04-26T01:42:33.978Z,23.75
2023-04-26T01:44:49.883Z,23.79
2023-04-26T01:45:49.936Z,23.81
2023-04-26T01:46:49.911Z,23.82
2023-04-26T01:47:49.922Z,23.82
2023-04-26T01:48:49.976Z,23.83
2023-04-26T01:49:49.869Z,23.85
2023-04-26T01:50:49.841Z,23.85
2023-04-26T01:51:49.824Z,23.86
2023-04-26T01:52:49.807Z,23.86
2023-04-26T01:53:49.790Z,23.87
2023-04-26T01:54:49.819Z,23.87
2023-04-26T01:55:49.799Z,23.86
2023-04-26T01:56:49.786Z,23.84
2023-04-26T01:57:49.783Z,23.82
2023-04-26T01:58:50.021Z,23.81
2023-04-26T01:59:49.769Z,23.78
2023-04-26T02:00:49.760Z,23.77
2023-04-26T02:01:49.752Z,23.75
2023-04-26T02:02:49.862Z,23.75
2023-04-26T02:03:49.788Z,23.75
2023-04-26T02:04:49.740Z,23.76
2023-04-26T02:05:49.711Z,23.76
2023-04-26T02:06:49.728Z,23.77
2023-04-26T02:07:49.733Z,23.77
2023-04-26T02:08:49.942Z,23.77
2023-04-26T02:09:49.719Z,23.75
2023-04-26T02:10:49.680Z,23.76
2023-04-26T02:11:49.700Z,23.77
2023-04-26T02:12:49.673Z,23.77
2023-04-26T02:13:49.696Z,23.78
2023-04-26T02:14:49.673Z,23.79
2023-04-26T02:15:49.693Z,23.80
2023-04-26T02:16:49.654Z,23.81
2023-04-26T02:17:49.736Z,23.82
2023-04-26T02:18:49.881Z,23.82
2023-04-26T02:19:49.648Z,23.82
2023-04-26T02:20:49.636Z,23.83
2023-04-26T02:21:49.638Z,23.84
2023-04-26T02:22:49.628Z,23.84
2023-04-26T02:23:49.672Z,23.85
2023-04-26T02:24:49.591Z,23.85
2023-04-26T02:25:49.588Z,23.84
2023-04-26T02:26:49.582Z,23.85
2023-04-26T02:27:49.581Z,23.87
2023-04-26T02:28:49.709Z,23.88
2023-04-26T02:29:49.538Z,23.89
2023-04-26T02:30:49.559Z,23.91
2023-04-26T02:31:49.632Z,23.92
2023-04-26T02:32:49.603Z,23.94
2023-04-26T02:33:49.533Z,23.97
2023-04-26T02:34:49.522Z,23.97
2023-04-26T02:35:49.512Z,23.99
2023-04-26T02:36:49.546Z,24.01
2023-04-26T02:37:49.500Z,24.02
2023-04-26T02:38:49.583Z,24.03
2023-04-26T02:39:50.094Z,24.05
2023-04-26T02:40:49.506Z,24.06
2023-04-26T02:41:49.506Z,24.08
2023-04-26T02:42:49.514Z,24.09
2023-04-26T02:43:49.529Z,24.10
2023-04-26T02:44:49.550Z,24.11
2023-04-26T02:45:49.556Z,24.12
2023-04-26T02:46:49.570Z,24.13
2023-04-26T02:47:49.579Z,24.14
2023-04-26T02:48:49.677Z,24.15
2023-04-26T02:49:49.580Z,24.16
2023-04-26T02:50:49.601Z,24.17
2023-04-26T02:51:49.586Z,24.18
2023-04-26T02:52:49.574Z,24.20
2023-04-26T02:53:49.579Z,24.20
2023-04-26T02:54:49.579Z,24.20
2023-04-26T02:55:49.608Z,24.21
2023-04-26T02:56:49.607Z,24.22
2023-04-26T02:57:49.566Z,24.21
2023-04-26T02:58:49.734Z,24.23
2023-04-26T02:59:49.574Z,24.23
2023-04-26T03:00:49.629Z,24.23
2023-04-26T03:01:49.617Z,24.24
2023-04-26T03:02:49.727Z,24.25
2023-04-26T03:03:49.696Z,24.26
2023-04-26T03:04:49.612Z,24.26
2023-04-26T03:05:49.618Z,24.26
2023-04-26T03:06:49.645Z,24.26
2023-04-26T03:07:49.582Z,24.26
2023-04-26T03:08:49.802Z,24.27
2023-04-26T03:09:49.605Z,24.27
2023-04-26T03:10:49.597Z,24.28
2023-04-26T03:11:50.310Z,24.29
2023-04-26T03:12:49.585Z,24.29
2023-04-26T03:13:49.600Z,24.30
2023-04-26T03:14:49.604Z,24.30
2023-04-26T03:15:49.616Z,24.31
2023-04-26T03:16:49.612Z,24.31
2023-04-26T03:17:49.646Z,24.32
2023-04-26T03:18:49.701Z,24.32
2023-04-26T03:19:49.578Z,24.33
2023-04-26T03:20:49.596Z,24.33
2023-04-26T03:21:49.623Z,24.33
2023-04-26T03:22:49.599Z,24.33
2023-04-26T03:23:49.598Z,24.33
2023-04-26T03:24:49.623Z,24.33
2023-04-26T03:25:49.618Z,24.32
2023-04-26T03:26:49.594Z,24.32
2023-04-26T03:27:49.630Z,24.32
2023-04-26T03:28:49.770Z,24.32
2023-04-26T03:29:49.610Z,24.32
2023-04-26T03:30:49.605Z,24.32
2023-04-26T03:31:49.642Z,24.32
2023-04-26T03:32:49.695Z,24.32
2023-04-26T03:33:49.637Z,24.33
2023-04-26T03:34:49.611Z,24.33
2023-04-26T03:35:49.602Z,24.33
2023-04-26T03:36:49.641Z,24.34
2023-04-26T03:37:50.806Z,24.35
2023-04-26T03:38:49.815Z,24.36
2023-04-26T03:39:49.602Z,24.36
2023-04-26T03:40:49.583Z,24.37
2023-04-26T03:41:49.588Z,24.37
2023-04-26T03:42:49.580Z,24.38
2023-04-26T03:43:49.564Z,24.39
2023-04-26T03:44:49.541Z,24.38
2023-04-26T03:45:49.585Z,24.38
2023-04-26T03:46:49.560Z,24.39
2023-04-26T03:47:49.588Z,24.39
2023-04-26T03:48:49.717Z,24.39
2023-04-26T03:49:49.543Z,24.40
2023-04-26T03:50:49.513Z,24.40
2023-04-26T03:51:49.516Z,24.39
2023-04-26T03:52:49.531Z,24.37
2023-04-26T03:53:49.502Z,24.36
2023-04-26T03:54:49.514Z,24.36
2023-04-26T03:55:49.476Z,24.36
2023-04-26T03:56:49.497Z,24.36
2023-04-26T03:57:49.492Z,24.36
2023-04-26T03:58:49.629Z,24.35
2023-04-26T03:59:49.464Z,24.36
2023-04-26T04:00:49.458Z,24.38
2023-04-26T04:01:49.459Z,24.37
2023-04-26T04:02:49.487Z,24.37
2023-04-26T04:03:49.641Z,24.38
2023-04-26T04:04:49.647Z,24.39
2023-04-26T04:05:49.413Z,24.40
2023-04-26T04:06:49.411Z,24.41
2023-04-26T04:07:49.394Z,24.41
2023-04-26T04:08:49.649Z,24.42
2023-04-26T04:09:49.409Z,24.42
2023-04-26T04:10:49.382Z,24.42
2023-04-26T04:11:49.385Z,24.43
2023-04-26T04:12:49.341Z,24.43
2023-04-26T04:13:49.361Z,24.44
2023-04-26T04:14:49.342Z,24.44
2023-04-26T04:15:49.372Z,24.45
2023-04-26T04:16:49.354Z,24.46
2023-04-26T04:17:49.360Z,24.47
2023-04-26T04:18:49.390Z,24.47
2023-04-26T04:19:49.328Z,24.48
2023-04-26T04:20:49.332Z,24.48
2023-04-26T04:21:49.297Z,24.49
2023-04-26T04:22:49.280Z,24.49
2023-04-26T04:23:49.299Z,24.49
2023-04-26T04:24:49.289Z,24.50
2023-04-26T04:25:49.270Z,24.50
2023-04-26T04:26:49.305Z,24.51
2023-04-26T04:27:49.246Z,24.51
2023-04-26T04:28:49.365Z,24.52
2023-04-26T04:29:49.275Z,24.52
2023-04-26T04:30:49.403Z,24.53
2023-04-26T04:31:49.281Z,24.54
2023-04-26T04:32:49.240Z,24.53
2023-04-26T04:33:49.237Z,24.54
2023-04-26T04:34:49.644Z,24.55
2023-04-26T04:35:49.269Z,24.54
2023-04-26T04:36:49.205Z,24.54
2023-04-26T04:37:49.195Z,24.53
2023-04-26T04:38:49.220Z,24.53
2023-04-26T04:39:49.208Z,24.53
2023-04-26T04:40:49.181Z,24.53
2023-04-26T04:41:49.218Z,24.53
2023-04-26T04:42:49.176Z,24.53
2023-04-26T04:43:49.142Z,24.53
2023-04-26T04:44:49.173Z,24.53
2023-04-26T04:45:49.192Z,24.53
2023-04-26T04:46:49.200Z,24.54
2023-04-26T04:47:49.228Z,24.53
2023-04-26T04:48:49.136Z,24.53
2023-04-26T04:49:49.150Z,24.53
2023-04-26T04:50:49.104Z,24.52
2023-04-26T04:51:49.101Z,24.53
2023-04-26T04:52:49.082Z,24.52
2023-04-26T04:53:49.111Z,24.52
2023-04-26T04:54:49.070Z,24.51
2023-04-26T04:55:49.077Z,24.53
2023-04-26T04:56:49.105Z,24.53
2023-04-26T04:57:49.061Z,24.53
2023-04-26T04:58:49.121Z,24.51
2023-04-26T04:59:49.088Z,24.51
2023-04-26T05:00:56.042Z,24.51
2023-04-26T05:01:49.083Z,24.51
2023-04-26T05:02:49.135Z,24.50
2023-04-26T05:03:49.198Z,24.50
2023-04-26T05:04:49.090Z,24.50
2023-04-26T05:05:49.015Z,24.50
2023-04-26T05:06:48.997Z,24.50
2023-04-26T05:07:49.045Z,24.50
2023-04-26T05:08:49.016Z,24.50
2023-04-26T05:09:48.999Z,24.50
2023-04-26T05:10:49.001Z,24.51
2023-04-26T05:11:48.992Z,24.50
2023-04-26T05:12:48.971Z,24.50
2023-04-26T05:13:50.303Z,24.50
2023-04-26T05:14:49.137Z,24.50
2023-04-26T05:15:49.139Z,24.50
2023-04-26T05:16:49.256Z,24.50
2023-04-26T05:17:49.163Z,24.49
2023-04-26T05:18:49.132Z,24.49
2023-04-26T05:19:49.137Z,24.47
2023-04-26T05:20:49.123Z,24.46
2023-04-26T05:21:49.149Z,24.45
2023-04-26T05:22:49.143Z,24.44
2023-04-26T05:23:49.114Z,24.44
2023-04-26T05:24:49.198Z,24.43
2023-04-26T05:25:49.183Z,24.43
2023-04-26T05:26:49.135Z,24.43
2023-04-26T05:27:49.150Z,24.43
2023-04-26T05:28:49.171Z,24.43
2023-04-26T05:29:49.172Z,24.43
2023-04-26T05:30:49.162Z,24.44
2023-04-26T05:31:49.780Z,24.43
2023-04-26T05:32:49.141Z,24.42
2023-04-26T05:33:49.170Z,24.41
2023-04-26T05:34:49.159Z,24.40
2023-04-26T05:35:49.172Z,24.37
2023-04-26T05:36:49.665Z,24.33
2023-04-26T05:37:49.205Z,24.25
2023-04-26T05:38:49.348Z,24.20
2023-04-26T05:39:49.258Z,24.14
2023-04-26T05:40:49.290Z,24.11
2023-04-26T05:41:49.696Z,24.09
2023-04-26T05:42:49.305Z,24.10
2023-04-26T05:43:49.333Z,24.11
2023-04-26T05:44:49.362Z,24.12
2023-04-26T05:45:56.922Z,24.13
2023-04-26T05:46:49.404Z,24.14
2023-04-26T05:47:49.451Z,24.17
2023-04-26T05:48:49.349Z,24.17
2023-04-26T05:49:49.353Z,24.14
2023-04-26T05:50:49.387Z,24.13
2023-04-26T05:51:49.674Z,24.04
2023-04-26T05:52:49.350Z,23.95
2023-04-26T05:53:49.538Z,23.82
2023-04-26T05:54:49.345Z,23.73
2023-04-26T05:55:49.343Z,23.64
2023-04-26T05:56:49.320Z,23.54
2023-04-26T05:57:49.362Z,23.48
2023-04-26T05:58:49.261Z,23.42
2023-04-26T05:59:49.344Z,23.36
2023-04-26T06:00:49.306Z,23.31
2023-04-26T06:01:49.328Z,23.21
2023-04-26T06:02:49.416Z,23.15
2023-04-26T06:03:49.499Z,23.11
2023-04-26T06:04:49.359Z,23.06
2023-04-26T06:05:49.331Z,23.01
2023-04-26T06:06:49.251Z,22.97
2023-04-26T06:07:49.235Z,22.92
2023-04-26T06:08:49.236Z,22.89
2023-04-26T06:09:49.189Z,22.88
2023-04-26T06:10:50.105Z,22.87
2023-04-26T06:11:49.261Z,22.86
2023-04-26T06:12:49.262Z,22.85
2023-04-26T06:13:49.330Z,22.79
2023-04-26T06:14:49.379Z,22.77
2023-04-26T06:15:49.410Z,22.78
2023-04-26T06:16:49.502Z,22.77
2023-04-26T06:17:49.501Z,22.75
2023-04-26T06:18:49.511Z,22.72
2023-04-26T06:19:49.543Z,22.69
2023-04-26T06:20:49.583Z,22.67
2023-04-26T06:21:49.668Z,22.64
2023-04-26T06:22:49.709Z,22.63
2023-04-26T06:23:49.738Z,22.64
2023-04-26T06:24:49.778Z,22.64
2023-04-26T06:25:49.826Z,22.61
2023-04-26T06:26:49.861Z,22.62
2023-04-26T06:27:49.941Z,22.63
2023-04-26T06:28:49.982Z,22.61
2023-04-26T06:29:50.014Z,22.62
2023-04-26T06:30:50.137Z,22.59
2023-04-26T06:31:50.285Z,22.60
2023-04-26T06:32:50.203Z,22.68
2023-04-26T06:33:50.391Z,22.63
2023-04-26T06:34:50.299Z,22.49
2023-04-26T06:35:50.354Z,22.34
2023-04-26T06:36:50.370Z,22.22
2023-04-26T06:37:50.699Z,22.20
2023-04-26T06:38:50.555Z,22.25
2023-04-26T06:39:50.637Z,22.27
2023-04-26T06:40:50.381Z,22.13
2023-04-26T06:41:51.946Z,22.11
2023-04-26T06:42:50.631Z,22.18
2023-04-26T06:43:50.602Z,22.28
2023-04-26T06:44:50.466Z,22.39
2023-04-26T06:45:50.584Z,22.49
2023-04-26T06:46:50.694Z,22.57
2023-04-26T06:47:50.591Z,22.60
2023-04-26T06:48:50.650Z,22.67
2023-04-26T06:49:50.701Z,22.72
2023-04-26T06:50:50.695Z,22.76
2023-04-26T06:51:50.818Z,22.82
2023-04-26T06:52:51.230Z,22.87
2023-04-26T06:53:51.177Z,22.92
2023-04-26T06:54:56.931Z,22.96
2023-04-26T06:55:51.867Z,22.98
2023-04-26T06:56:51.056Z,23.01
2023-04-26T06:57:51.185Z,23.05
2023-04-26T06:58:50.869Z,23.08
2023-04-26T06:59:50.844Z,23.10
2023-04-26T07:00:50.830Z,23.12
2023-04-26T07:01:50.882Z,23.14
2023-04-26T07:02:50.861Z,23.17
2023-04-26T07:03:51.133Z,23.21
2023-04-26T07:04:51.091Z,23.24
2023-04-26T07:05:51.010Z,23.26
2023-04-26T07:06:50.826Z,23.24
2023-04-26T07:07:50.775Z,23.25
2023-04-26T07:08:50.854Z,23.24
2023-04-26T07:09:50.753Z,23.24
2023-04-26T07:10:50.781Z,23.26
2023-04-26T07:11:50.736Z,23.21
2023-04-26T07:12:50.913Z,23.23
2023-04-26T07:13:51.027Z,23.22
2023-04-26T07:14:50.716Z,23.20
2023-04-26T07:15:50.745Z,23.17
2023-04-26T07:16:50.746Z,23.14
2023-04-26T07:17:50.709Z,23.16
2023-04-26T07:18:50.678Z,23.20
2023-04-26T07:19:50.644Z,23.26
2023-04-26T07:20:51.635Z,23.31
2023-04-26T07:21:50.643Z,23.35
2023-04-26T07:22:50.734Z,23.40
2023-04-26T07:23:51.416Z,23.42
2023-04-26T07:24:50.676Z,23.43
2023-04-26T07:25:50.647Z,23.44
2023-04-26T07:26:50.659Z,23.42
2023-04-26T07:27:50.747Z,23.38
2023-04-26T07:28:50.626Z,23.31
2023-04-26T07:29:50.613Z,23.28
2023-04-26T07:30:50.622Z,23.27
2023-04-26T07:31:50.621Z,23.28
2023-04-26T07:32:50.872Z,23.32
2023-04-26T07:33:50.860Z,23.38
2023-04-26T07:34:50.627Z,23.41
2023-04-26T07:35:50.674Z,23.42
2023-04-26T07:36:50.733Z,23.43
2023-04-26T07:37:50.749Z,23.48
2023-04-26T07:38:50.797Z,23.53
2023-04-26T07:39:50.872Z,23.59
2023-04-26T07:40:50.907Z,23.65
2023-04-26T07:41:51.001Z,23.73
2023-04-26T07:42:51.026Z,23.87
2023-04-26T07:43:51.274Z,23.94
2023-04-26T07:44:51.130Z,23.99
2023-04-26T07:45:51.315Z,23.99
2023-04-26T07:46:51.280Z,23.99
2023-04-26T07:47:51.434Z,23.96
2023-04-26T07:48:51.367Z,23.95
2023-04-26T07:49:51.446Z,23.92
2023-04-26T07:50:51.516Z,23.93
2023-04-26T07:51:51.526Z,23.92
2023-04-26T07:52:51.557Z,23.92
2023-04-26T07:53:51.753Z,23.91
2023-04-26T07:54:51.640Z,23.90
2023-04-26T07:55:51.725Z,23.91
2023-04-26T07:56:51.780Z,23.87
2023-04-26T07:57:52.208Z,23.87
2023-04-26T07:58:51.843Z,23.87
2023-04-26T07:59:52.077Z,23.83
2023-04-26T08:00:51.991Z,23.82
2023-04-26T08:01:52.049Z,23.83
2023-04-26T08:02:52.407Z,23.85
2023-04-26T08:03:52.461Z,23.86
2023-04-26T08:04:52.296Z,23.88
2023-04-26T08:05:52.489Z,23.91
2023-04-26T08:06:52.236Z,23.94
2023-04-26T08:07:52.759Z,23.97
2023-04-26T08:08:52.324Z,23.99
2023-04-26T08:09:52.391Z,24.00
2023-04-26T08:10:52.591Z,23.99
2023-04-26T08:11:52.587Z,23.99
2023-04-26T08:12:52.768Z,24.03
2023-04-26T08:13:52.761Z,24.04
2023-04-26T08:14:53.208Z,24.07
2023-04-26T08:15:52.863Z,24.09
2023-04-26T08:16:52.818Z,24.10
2023-04-26T08:17:52.907Z,24.09
2023-04-26T08:18:52.942Z,24.06
2023-04-26T08:19:52.965Z,24.11
2023-04-26T08:20:53.001Z,24.10
2023-04-26T08:21:53.066Z,24.12
2023-04-26T08:22:53.159Z,24.17
2023-04-26T08:23:53.516Z,24.19
2023-04-26T08:24:53.202Z,24.23
2023-04-26T08:25:53.208Z,24.26
2023-04-26T08:26:53.294Z,24.29
2023-04-26T08:27:53.326Z,24.29
2023-04-26T08:28:53.359Z,24.27
2023-04-26T08:29:53.433Z,24.28
2023-04-26T08:30:53.549Z,24.27
2023-04-26T08:31:53.637Z,24.25
2023-04-26T08:32:53.765Z,24.27
2023-04-26T08:33:53.925Z,24.30
2023-04-26T08:34:53.645Z,24.31
2023-04-26T08:35:53.797Z,24.31
2023-04-26T08:36:53.723Z,24.26
2023-04-26T08:37:54.206Z,24.22
2023-04-26T08:38:53.797Z,24.11
2023-04-26T08:39:53.883Z,24.09
2023-04-26T08:40:53.896Z,24.12
2023-04-26T08:41:53.947Z,24.15
2023-04-26T08:42:54.030Z,24.18
2023-04-26T08:43:54.404Z,24.21
2023-04-26T08:44:54.354Z,24.24
2023-04-26T08:45:54.232Z,24.29
2023-04-26T08:46:54.186Z,24.32
2023-04-26T08:47:54.265Z,24.35
2023-04-26T08:48:54.211Z,24.38
2023-04-26T08:49:54.287Z,24.41
2023-04-26T08:50:54.333Z,24.42
2023-04-26T08:51:54.309Z,24.42
2023-04-26T08:52:54.774Z,24.46
2023-04-26T08:53:54.464Z,24.47
2023-04-26T08:54:54.409Z,24.44
2023-04-26T08:55:54.379Z,24.35
2023-04-26T08:56:54.411Z,24.30
2023-04-26T08:57:54.462Z,24.23
2023-04-26T08:58:54.461Z,24.17
2023-04-26T08:59:54.474Z,24.12
2023-04-26T09:00:54.539Z,24.06
2023-04-26T09:01:54.580Z,24.00
2023-04-26T09:02:54.724Z,23.94
2023-04-26T09:03:55.233Z,23.89
2023-04-26T09:04:54.878Z,23.84
2023-04-26T09:05:54.772Z,23.80
2023-04-26T09:06:54.819Z,23.76
2023-04-26T09:07:54.849Z,23.72
2023-04-26T09:08:55.238Z,23.70
2023-04-26T09:09:55.016Z,23.66
2023-04-26T09:10:55.046Z,23.63
2023-04-26T09:11:55.088Z,23.61
2023-04-26T09:12:55.263Z,23.57
2023-04-26T09:13:55.202Z,23.55
2023-04-26T09:14:55.383Z,23.52
2023-04-26T09:15:55.326Z,23.51
2023-04-26T09:16:55.340Z,23.48
2023-04-26T09:17:55.378Z,23.48
2023-04-26T09:18:55.485Z,23.46
2023-04-26T09:19:55.363Z,23.46
2023-04-26T09:20:55.383Z,23.45
2023-04-26T09:21:55.354Z,23.44
2023-04-26T09:22:55.373Z,23.42
2023-04-26T09:23:55.384Z,23.41
2023-04-26T09:24:55.336Z,23.40
2023-04-26T09:25:55.354Z,23.37
2023-04-26T09:26:55.362Z,23.37
2023-04-26T09:27:55.383Z,23.37
2023-04-26T09:28:55.374Z,23.36
2023-04-26T09:29:55.355Z,23.35
2023-04-26T09:30:55.423Z,23.35
2023-04-26T09:31:55.346Z,23.32
2023-04-26T09:32:55.330Z,23.32
2023-04-26T09:33:55.421Z,23.31
2023-04-26T09:34:55.333Z,23.29
2023-04-26T09:35:55.363Z,23.24
2023-04-26T09:36:55.351Z,23.20
2023-04-26T09:37:59.600Z,23.15
2023-04-26T09:38:56.764Z,23.10
2023-04-26T09:39:55.328Z,23.08
2023-04-26T09:40:55.351Z,23.07
2023-04-26T09:41:55.340Z,23.01
2023-04-26T09:42:55.328Z,23.01
2023-04-26T09:43:55.312Z,23.03
2023-04-26T09:44:55.287Z,23.06
2023-04-26T09:45:55.310Z,23.09
2023-04-26T09:46:55.346Z,23.14
2023-04-26T09:47:55.326Z,23.17
2023-04-26T09:48:55.905Z,23.28
2023-04-26T09:49:55.290Z,23.39
2023-04-26T09:50:55.286Z,23.49
2023-04-26T09:51:55.261Z,23.56
2023-04-26T09:52:55.680Z,23.62
2023-04-26T09:53:56.640Z,23.67
2023-04-26T09:54:55.361Z,23.70
2023-04-26T09:55:55.446Z,23.70
2023-04-26T09:56:55.464Z,23.70
2023-04-26T09:57:55.580Z,23.72
2023-04-26T09:58:55.633Z,23.73
2023-04-26T09:59:55.877Z,23.75
2023-04-26T10:00:55.643Z,23.79
2023-04-26T10:01:55.614Z,23.78
2023-04-26T10:02:55.752Z,23.77
2023-04-26T10:03:56.094Z,23.76
2023-04-26T10:04:55.865Z,23.78
2023-04-26T10:05:55.920Z,23.79
2023-04-26T10:06:55.932Z,23.78
2023-04-26T10:07:56.073Z,23.78
2023-04-26T10:08:56.595Z,23.77
2023-04-26T10:09:56.112Z,23.77
2023-04-26T10:10:56.167Z,23.78
2023-04-26T10:11:56.232Z,23.80
2023-04-26T10:12:56.285Z,23.83
2023-04-26T10:13:56.372Z,23.81
2023-04-26T10:14:56.417Z,23.81
2023-04-26T10:15:56.469Z,23.81
2023-04-26T10:16:56.573Z,23.84
2023-04-26T10:17:56.623Z,23.84
2023-04-26T10:18:56.669Z,23.86
2023-04-26T10:19:56.680Z,23.85
2023-04-26T10:20:56.713Z,23.83
2023-04-26T10:21:56.792Z,23.82
2023-04-26T10:22:57.785Z,23.79
2023-04-26T10:23:56.886Z,23.77
2023-04-26T10:24:56.968Z,23.77
2023-04-26T10:25:57.112Z,23.78
2023-04-26T10:26:57.068Z,23.76
2023-04-26T10:27:57.113Z,23.76
2023-04-26T10:29:02.074Z,23.76
2023-04-26T10:29:58.200Z,23.76
2023-04-26T10:30:57.185Z,23.76
2023-04-26T10:31:57.225Z,23.77
2023-04-26T10:32:57.298Z,23.75
2023-04-26T10:33:57.279Z,23.77
2023-04-26T10:34:57.234Z,23.75
2023-04-26T10:35:57.170Z,23.73
2023-04-26T10:36:57.254Z,23.75
2023-04-26T10:37:57.390Z,23.78
2023-04-26T10:38:57.265Z,23.80
2023-04-26T10:39:57.509Z,23.82
2023-04-26T10:40:57.381Z,23.84
2023-04-26T10:41:57.465Z,23.87
2023-04-26T10:42:57.470Z,23.88
2023-04-26T10:43:58.157Z,23.89
2023-04-26T10:44:57.612Z,23.88
2023-04-26T10:45:57.682Z,23.90
2023-04-26T10:46:57.709Z,23.91
2023-04-26T10:47:57.861Z,23.92
2023-04-26T10:48:57.826Z,23.94
2023-04-26T10:49:57.909Z,23.91
2023-04-26T10:50:57.932Z,23.92
2023-04-26T10:51:57.999Z,23.93
2023-04-26T10:52:58.100Z,23.93
2023-04-26T10:53:58.502Z,23.90
2023-04-26T10:54:58.317Z,23.90
2023-04-26T10:55:58.281Z,23.86
2023-04-26T10:56:58.314Z,23.80
2023-04-26T10:57:58.336Z,23.79
2023-04-26T10:58:58.392Z,23.78
2023-04-26T10:59:58.409Z,23.77
2023-04-26T11:00:58.480Z,23.77
2023-04-26T11:01:58.505Z,23.72
2023-04-26T11:02:58.758Z,23.69
2023-04-26T11:03:59.316Z,23.69
2023-04-26T11:04:58.853Z,23.70
2023-04-26T11:05:59.105Z,23.69
2023-04-26T11:06:58.814Z,23.70
2023-04-26T11:07:58.813Z,23.70
2023-04-26T11:08:59.326Z,23.67
2023-04-26T11:09:58.943Z,23.65
2023-04-26T11:10:59.162Z,23.63
2023-04-26T11:11:59.251Z,23.63
2023-04-26T11:12:59.072Z,23.61
2023-04-26T11:13:59.326Z,23.61
2023-04-26T11:15:00.310Z,23.62
2023-04-26T11:15:59.242Z,23.60
2023-04-26T11:16:59.237Z,23.61
2023-04-26T11:17:59.353Z,23.64
2023-04-26T11:18:59.388Z,23.63
2023-04-26T11:19:59.426Z,23.54
2023-04-26T11:20:59.528Z,23.49
2023-04-26T11:21:59.506Z,23.46
2023-04-26T11:22:59.504Z,23.47
2023-04-26T11:23:59.493Z,23.50
2023-04-26T11:24:59.532Z,23.53
2023-04-26T11:25:59.539Z,23.56
2023-04-26T11:26:59.580Z,23.60
2023-04-26T11:27:59.708Z,23.62
2023-04-26T11:28:59.764Z,23.65
2023-04-26T11:29:59.816Z,23.68
2023-04-26T11:30:59.870Z,23.70
2023-04-26T11:31:59.904Z,23.73
2023-04-26T11:33:00.325Z,23.73
2023-04-26T11:33:59.960Z,23.77
2023-04-26T11:35:00.355Z,23.80
2023-04-26T11:36:00.157Z,23.82
2023-04-26T11:37:00.156Z,23.85
2023-04-26T11:38:00.202Z,23.85
2023-04-26T11:39:00.248Z,23.85
2023-04-26T11:40:00.365Z,23.84
2023-04-26T11:41:00.397Z,23.84
2023-04-26T11:42:00.446Z,23.83
2023-04-26T11:43:00.508Z,23.82
2023-04-26T11:44:00.659Z,23.82
2023-04-26T11:45:00.656Z,23.82
2023-04-26T11:46:00.679Z,23.80
2023-04-26T11:47:00.867Z,23.79
2023-04-26T11:48:00.873Z,23.78
2023-04-26T11:49:00.902Z,23.76
2023-04-26T11:50:00.954Z,23.75
2023-04-26T11:51:01.014Z,23.76
2023-04-26T11:52:01.086Z,23.77
2023-04-26T11:53:01.120Z,23.78
2023-04-26T11:54:01.194Z,23.79
2023-04-26T11:55:01.268Z,23.80
2023-04-26T11:56:01.313Z,23.81
2023-04-26T11:57:01.376Z,23.82
2023-04-26T11:58:01.436Z,23.82
2023-04-26T11:59:01.495Z,23.83
2023-04-26T12:00:01.574Z,23.84
2023-04-26T12:01:01.602Z,23.84
2023-04-26T12:02:01.694Z,23.86
2023-04-26T12:03:01.888Z,23.84
2023-04-26T12:04:01.876Z,23.84
2023-04-26T12:05:01.991Z,23.84
2023-04-26T12:06:01.954Z,23.83
2023-04-26T12:07:02.017Z,23.84
2023-04-26T12:08:02.075Z,23.84
2023-04-26T12:09:02.131Z,23.84
2023-04-26T12:10:02.154Z,23.84
2023-04-26T12:11:02.300Z,23.85
2023-04-26T12:12:02.326Z,23.85
2023-04-26T12:13:02.357Z,23.85
2023-04-26T12:14:02.401Z,23.85
2023-04-26T12:15:04.337Z,23.85
2023-04-26T12:16:05.295Z,23.86
2023-04-26T12:17:02.543Z,23.86
2023-04-26T12:18:02.586Z,23.87
2023-04-26T12:19:02.522Z,23.88
2023-04-26T12:20:02.495Z,23.88
2023-04-26T12:21:02.466Z,23.88
2023-04-26T12:22:02.475Z,23.87
2023-04-26T12:23:02.494Z,23.86
2023-04-26T12:24:02.460Z,23.86
2023-04-26T12:25:02.429Z,23.87
2023-04-26T12:26:02.413Z,23.87
2023-04-26T12:27:02.836Z,23.88
2023-04-26T12:28:02.482Z,23.88
2023-04-26T12:29:02.558Z,23.88
2023-04-26T12:30:02.601Z,23.89
2023-04-26T12:31:02.671Z,23.89
2023-04-26T12:32:02.964Z,23.88
2023-04-26T12:33:15.373Z,23.87
2023-04-26T12:34:03.784Z,23.87
2023-04-26T12:35:02.786Z,23.88
2023-04-26T12:36:02.736Z,23.89
2023-04-26T12:37:02.715Z,23.89
2023-04-26T12:38:02.712Z,23.90
2023-04-26T12:39:02.722Z,23.89
2023-04-26T12:40:02.715Z,23.88
2023-04-26T12:41:02.737Z,23.89
2023-04-26T12:42:02.686Z,23.90
2023-04-26T12:43:02.679Z,23.89
2023-04-26T12:44:02.690Z,23.89
2023-04-26T12:45:02.743Z,23.88
2023-04-26T12:46:02.878Z,23.88
2023-04-26T12:47:02.835Z,23.88
2023-04-26T12:48:02.991Z,23.90
2023-04-26T12:49:02.926Z,23.91
2023-04-26T12:50:02.995Z,23.91
2023-04-26T12:51:03.030Z,23.91
2023-04-26T12:52:03.081Z,23.92
2023-04-26T12:53:03.130Z,23.92
2023-04-26T12:54:03.220Z,23.89